sensor_id;sensor_type;location;lat;lon;timestamp;temperature;humidity
13970;DHT22;7057;49.984;8.404;2022-10-16T00:01:20;15.50;99.90
13970;DHT22;7057;49.984;8.404;2022-10-16T00:03:48;15.50;99.90
13970;DHT22;7057;49.984;8.404;2022-10-16T00:06:17;15.60;99.90
13970;DHT22;7057;49.984;8.404;2022-10-16T00:08:45;15.50;99.90
13970;DHT22;7057;49.984;8.404;2022-10-16T00:11:16;15.50;99.90
13970;DHT22;7057;49.984;8.404;2022-10-16T00:13:44;15.60;99.90
13970;DHT22;7057;49.984;8.404;2022-10-16T00:16:12;15.50;99.90
13970;DHT22;7057;49.984;8.404;2022-10-16T00:18:40;15.50;99.90
13970;DHT22;7057;49.984;8.404;2022-10-16T00:21:10;15.60;99.90
13970;DHT22;7057;49.984;8.404;2022-10-16T00:23:37;15.50;99.90
13970;DHT22;7057;49.984;8.404;2022-10-16T00:26:07;15.50;99.90
13970;DHT22;7057;49.984;8.404;2022-10-16T00:28:36;15.50;99.90
13970;DHT22;7057;49.984;8.404;2022-10-16T00:31:04;15.50;99.90
13970;DHT22;7057;49.984;8.404;2022-10-16T00:33:32;15.40;99.90
13970;DHT22;7057;49.984;8.404;2022-10-16T00:36:00;15.50;99.90
13970;DHT22;7057;49.984;8.404;2022-10-16T00:38:27;15.40;99.90
13970;DHT22;7057;49.984;8.404;2022-10-16T00:40:54;15.40;99.90
13970;DHT22;7057;49.984;8.404;2022-10-16T00:43:39;15.40;99.90
13970;DHT22;7057;49.984;8.404;2022-10-16T00:46:13;15.50;99.90
13970;DHT22;7057;49.984;8.404;2022-10-16T00:48:45;15.60;99.90
13970;DHT22;7057;49.984;8.404;2022-10-16T00:51:14;15.50;99.90
13970;DHT22;7057;49.984;8.404;2022-10-16T00:53:42;15.60;99.90
13970;DHT22;7057;49.984;8.404;2022-10-16T00:56:09;15.60;99.90
13970;DHT22;7057;49.984;8.404;2022-10-16T00:58:36;15.60;99.90
13970;DHT22;7057;49.984;8.404;2022-10-16T01:01:05;15.60;99.90
13970;DHT22;7057;49.984;8.404;2022-10-16T01:03:34;15.60;99.90
13970;DHT22;7057;49.984;8.404;2022-10-16T01:06:11;15.60;99.90
13970;DHT22;7057;49.984;8.404;2022-10-16T01:08:49;15.60;99.90
13970;DHT22;7057;49.984;8.404;2022-10-16T01:11:22;15.60;99.90
13970;DHT22;7057;49.984;8.404;2022-10-16T01:13:54;15.70;99.90
13970;DHT22;7057;49.984;8.404;2022-10-16T01:16:31;15.60;99.90
13970;DHT22;7057;49.984;8.404;2022-10-16T01:19:09;15.60;99.90
13970;DHT22;7057;49.984;8.404;2022-10-16T01:21:40;15.60;99.90
13970;DHT22;7057;49.984;8.404;2022-10-16T01:24:15;15.60;99.90
13970;DHT22;7057;49.984;8.404;2022-10-16T01:27:03;15.60;99.90
13970;DHT22;7057;49.984;8.404;2022-10-16T01:29:36;15.60;99.90
13970;DHT22;7057;49.984;8.404;2022-10-16T01:32:10;15.70;99.90
13970;DHT22;7057;49.984;8.404;2022-10-16T01:34:47;15.60;99.90
13970;DHT22;7057;49.984;8.404;2022-10-16T01:37:18;15.60;99.90
13970;DHT22;7057;49.984;8.404;2022-10-16T01:39:47;15.60;99.90
13970;DHT22;7057;49.984;8.404;2022-10-16T01:42:20;15.60;99.90
13970;DHT22;7057;49.984;8.404;2022-10-16T01:44:49;15.60;99.90
13970;DHT22;7057;49.984;8.404;2022-10-16T01:47:19;15.60;99.90
13970;DHT22;7057;49.984;8.404;2022-10-16T01:49:49;15.50;99.90
13970;DHT22;7057;49.984;8.404;2022-10-16T01:52:21;15.60;99.90
13970;DHT22;7057;49.984;8.404;2022-10-16T01:54:52;15.60;99.90
13970;DHT22;7057;49.984;8.404;2022-10-16T01:57:24;15.60;99.90
13970;DHT22;7057;49.984;8.404;2022-10-16T01:59:55;15.60;99.90
13970;DHT22;7057;49.984;8.404;2022-10-16T02:02:27;15.50;99.90
13970;DHT22;7057;49.984;8.404;2022-10-16T02:04:58;15.60;99.90
13970;DHT22;7057;49.984;8.404;2022-10-16T02:07:29;15.60;99.90
13970;DHT22;7057;49.984;8.404;2022-10-16T02:09:56;15.60;99.90
13970;DHT22;7057;49.984;8.404;2022-10-16T02:12:27;15.60;99.90
13970;DHT22;7057;49.984;8.404;2022-10-16T02:14:55;15.60;99.90
13970;DHT22;7057;49.984;8.404;2022-10-16T02:17:23;15.60;99.90
13970;DHT22;7057;49.984;8.404;2022-10-16T02:19:53;15.60;99.90
13970;DHT22;7057;49.984;8.404;2022-10-16T02:22:24;15.60;99.90
13970;DHT22;7057;49.984;8.404;2022-10-16T02:24:56;15.60;99.90
13970;DHT22;7057;49.984;8.404;2022-10-16T02:27:29;15.50;99.90
13970;DHT22;7057;49.984;8.404;2022-10-16T02:30:03;15.50;99.90
13970;DHT22;7057;49.984;8.404;2022-10-16T02:32:35;15.40;99.90
13970;DHT22;7057;49.984;8.404;2022-10-16T02:35:04;15.40;99.90
13970;DHT22;7057;49.984;8.404;2022-10-16T02:37:32;15.40;99.90
13970;DHT22;7057;49.984;8.404;2022-10-16T02:40:00;15.40;99.90
13970;DHT22;7057;49.984;8.404;2022-10-16T02:42:33;15.40;99.90
13970;DHT22;7057;49.984;8.404;2022-10-16T02:45:01;15.40;99.90
13970;DHT22;7057;49.984;8.404;2022-10-16T02:47:28;15.40;99.90
13970;DHT22;7057;49.984;8.404;2022-10-16T02:49:55;15.40;99.90
13970;DHT22;7057;49.984;8.404;2022-10-16T02:52:22;15.40;99.90
13970;DHT22;7057;49.984;8.404;2022-10-16T02:54:49;15.40;99.90
13970;DHT22;7057;49.984;8.404;2022-10-16T02:57:17;15.40;99.90
13970;DHT22;7057;49.984;8.404;2022-10-16T02:59:46;15.50;99.90
13970;DHT22;7057;49.984;8.404;2022-10-16T03:02:13;15.50;99.90
13970;DHT22;7057;49.984;8.404;2022-10-16T03:04:40;15.50;99.90
13970;DHT22;7057;49.984;8.404;2022-10-16T03:07:08;15.50;99.90
13970;DHT22;7057;49.984;8.404;2022-10-16T03:09:35;15.50;99.90
13970;DHT22;7057;49.984;8.404;2022-10-16T03:12:02;15.50;99.90
13970;DHT22;7057;49.984;8.404;2022-10-16T03:14:30;15.50;99.90
13970;DHT22;7057;49.984;8.404;2022-10-16T03:16:58;15.50;99.90
13970;DHT22;7057;49.984;8.404;2022-10-16T03:19:25;15.60;99.90
13970;DHT22;7057;49.984;8.404;2022-10-16T03:21:53;15.60;99.90
13970;DHT22;7057;49.984;8.404;2022-10-16T03:24:20;15.60;99.90
13970;DHT22;7057;49.984;8.404;2022-10-16T03:26:47;15.60;99.90
13970;DHT22;7057;49.984;8.404;2022-10-16T03:29:14;15.50;99.90
13970;DHT22;7057;49.984;8.404;2022-10-16T03:31:41;15.50;99.90
13970;DHT22;7057;49.984;8.404;2022-10-16T03:34:10;15.50;99.90
13970;DHT22;7057;49.984;8.404;2022-10-16T03:36:37;15.50;99.90
13970;DHT22;7057;49.984;8.404;2022-10-16T03:39:04;15.60;99.90
13970;DHT22;7057;49.984;8.404;2022-10-16T03:41:31;15.50;99.90
13970;DHT22;7057;49.984;8.404;2022-10-16T03:43:58;15.50;99.90
13970;DHT22;7057;49.984;8.404;2022-10-16T03:46:26;15.50;99.90
13970;DHT22;7057;49.984;8.404;2022-10-16T03:48:53;15.40;99.90
13970;DHT22;7057;49.984;8.404;2022-10-16T03:51:21;15.50;99.90
13970;DHT22;7057;49.984;8.404;2022-10-16T03:53:48;15.50;99.90
13970;DHT22;7057;49.984;8.404;2022-10-16T03:56:16;15.50;99.90
13970;DHT22;7057;49.984;8.404;2022-10-16T03:58:43;15.50;99.90
13970;DHT22;7057;49.984;8.404;2022-10-16T04:01:10;15.40;99.90
13970;DHT22;7057;49.984;8.404;2022-10-16T04:03:37;15.40;99.90
13970;DHT22;7057;49.984;8.404;2022-10-16T04:06:04;15.40;99.90
13970;DHT22;7057;49.984;8.404;2022-10-16T04:08:33;15.40;99.90
13970;DHT22;7057;49.984;8.404;2022-10-16T04:11:03;15.40;99.90
13970;DHT22;7057;49.984;8.404;2022-10-16T04:13:30;15.30;99.90
13970;DHT22;7057;49.984;8.404;2022-10-16T04:15:57;15.30;99.90
13970;DHT22;7057;49.984;8.404;2022-10-16T04:18:24;15.40;99.90
13970;DHT22;7057;49.984;8.404;2022-10-16T04:20:53;15.40;99.90
13970;DHT22;7057;49.984;8.404;2022-10-16T04:23:20;15.40;99.90
13970;DHT22;7057;49.984;8.404;2022-10-16T04:25:50;15.50;99.90
13970;DHT22;7057;49.984;8.404;2022-10-16T04:28:17;15.50;99.90
13970;DHT22;7057;49.984;8.404;2022-10-16T04:30:45;15.50;99.90
13970;DHT22;7057;49.984;8.404;2022-10-16T04:33:12;15.50;99.90
13970;DHT22;7057;49.984;8.404;2022-10-16T04:35:39;15.50;99.90
13970;DHT22;7057;49.984;8.404;2022-10-16T04:38:06;15.50;99.90
13970;DHT22;7057;49.984;8.404;2022-10-16T04:40:34;15.40;99.90
13970;DHT22;7057;49.984;8.404;2022-10-16T04:43:03;15.40;99.90
13970;DHT22;7057;49.984;8.404;2022-10-16T04:45:31;15.40;99.90
13970;DHT22;7057;49.984;8.404;2022-10-16T04:47:59;15.40;99.90
13970;DHT22;7057;49.984;8.404;2022-10-16T04:50:26;15.40;99.90
13970;DHT22;7057;49.984;8.404;2022-10-16T04:52:54;15.40;99.90
13970;DHT22;7057;49.984;8.404;2022-10-16T04:55:21;15.40;99.90
13970;DHT22;7057;49.984;8.404;2022-10-16T04:57:48;15.40;99.90
13970;DHT22;7057;49.984;8.404;2022-10-16T05:00:17;15.40;99.90
13970;DHT22;7057;49.984;8.404;2022-10-16T05:02:44;15.30;99.90
13970;DHT22;7057;49.984;8.404;2022-10-16T05:05:11;15.30;99.90
13970;DHT22;7057;49.984;8.404;2022-10-16T05:07:40;15.40;99.90
13970;DHT22;7057;49.984;8.404;2022-10-16T05:10:07;15.40;99.90
13970;DHT22;7057;49.984;8.404;2022-10-16T05:12:34;15.30;99.90
13970;DHT22;7057;49.984;8.404;2022-10-16T05:15:02;15.40;99.90
13970;DHT22;7057;49.984;8.404;2022-10-16T05:17:30;15.40;99.90
13970;DHT22;7057;49.984;8.404;2022-10-16T05:19:57;15.40;99.90
13970;DHT22;7057;49.984;8.404;2022-10-16T05:22:25;15.40;99.90
13970;DHT22;7057;49.984;8.404;2022-10-16T05:24:52;15.40;99.90
13970;DHT22;7057;49.984;8.404;2022-10-16T05:27:19;15.40;99.90
13970;DHT22;7057;49.984;8.404;2022-10-16T05:29:47;15.40;99.90
13970;DHT22;7057;49.984;8.404;2022-10-16T05:32:16;15.40;99.90
13970;DHT22;7057;49.984;8.404;2022-10-16T05:34:45;15.40;99.90
13970;DHT22;7057;49.984;8.404;2022-10-16T05:37:13;15.40;99.90
13970;DHT22;7057;49.984;8.404;2022-10-16T05:39:40;15.40;99.90
13970;DHT22;7057;49.984;8.404;2022-10-16T05:42:07;15.40;99.90
13970;DHT22;7057;49.984;8.404;2022-10-16T05:44:34;15.40;99.90
13970;DHT22;7057;49.984;8.404;2022-10-16T05:47:02;15.30;99.90
13970;DHT22;7057;49.984;8.404;2022-10-16T05:49:29;15.30;99.90
13970;DHT22;7057;49.984;8.404;2022-10-16T05:51:57;15.40;99.90
13970;DHT22;7057;49.984;8.404;2022-10-16T05:54:25;15.30;99.90
13970;DHT22;7057;49.984;8.404;2022-10-16T05:56:52;15.40;99.90
13970;DHT22;7057;49.984;8.404;2022-10-16T05:59:19;15.40;99.90
13970;DHT22;7057;49.984;8.404;2022-10-16T06:01:46;15.40;99.90
13970;DHT22;7057;49.984;8.404;2022-10-16T06:04:13;15.40;99.90
13970;DHT22;7057;49.984;8.404;2022-10-16T06:06:40;15.40;99.90
13970;DHT22;7057;49.984;8.404;2022-10-16T06:09:10;15.40;99.90
13970;DHT22;7057;49.984;8.404;2022-10-16T06:11:37;15.40;99.90
13970;DHT22;7057;49.984;8.404;2022-10-16T06:14:04;15.50;99.90
13970;DHT22;7057;49.984;8.404;2022-10-16T06:16:33;15.50;99.90
13970;DHT22;7057;49.984;8.404;2022-10-16T06:19:02;15.60;99.90
13970;DHT22;7057;49.984;8.404;2022-10-16T06:21:32;15.60;99.90
13970;DHT22;7057;49.984;8.404;2022-10-16T06:23:59;15.60;99.90
13970;DHT22;7057;49.984;8.404;2022-10-16T06:26:29;15.60;99.90
13970;DHT22;7057;49.984;8.404;2022-10-16T06:28:58;15.60;99.90
13970;DHT22;7057;49.984;8.404;2022-10-16T06:31:26;15.60;99.90
13970;DHT22;7057;49.984;8.404;2022-10-16T06:33:57;15.70;99.90
13970;DHT22;7057;49.984;8.404;2022-10-16T06:36:25;15.60;99.90
13970;DHT22;7057;49.984;8.404;2022-10-16T06:38:52;15.60;99.90
13970;DHT22;7057;49.984;8.404;2022-10-16T06:41:21;15.60;99.90
13970;DHT22;7057;49.984;8.404;2022-10-16T06:43:50;15.60;99.90
13970;DHT22;7057;49.984;8.404;2022-10-16T06:46:19;15.60;99.90
13970;DHT22;7057;49.984;8.404;2022-10-16T06:48:47;15.60;99.90
13970;DHT22;7057;49.984;8.404;2022-10-16T06:51:16;15.70;99.90
13970;DHT22;7057;49.984;8.404;2022-10-16T06:53:46;15.70;99.90
13970;DHT22;7057;49.984;8.404;2022-10-16T06:56:16;15.60;99.90
13970;DHT22;7057;49.984;8.404;2022-10-16T06:58:44;15.60;99.90
13970;DHT22;7057;49.984;8.404;2022-10-16T07:01:14;15.60;99.90
13970;DHT22;7057;49.984;8.404;2022-10-16T07:03:43;15.60;99.90
13970;DHT22;7057;49.984;8.404;2022-10-16T07:06:14;15.60;99.90
13970;DHT22;7057;49.984;8.404;2022-10-16T07:08:43;15.70;99.90
13970;DHT22;7057;49.984;8.404;2022-10-16T07:11:12;15.70;99.90
13970;DHT22;7057;49.984;8.404;2022-10-16T07:13:40;15.70;99.90
13970;DHT22;7057;49.984;8.404;2022-10-16T07:16:09;15.70;99.90
13970;DHT22;7057;49.984;8.404;2022-10-16T07:18:38;15.70;99.90
13970;DHT22;7057;49.984;8.404;2022-10-16T07:21:06;15.70;99.90
13970;DHT22;7057;49.984;8.404;2022-10-16T07:23:34;15.80;99.90
13970;DHT22;7057;49.984;8.404;2022-10-16T07:26:02;15.80;99.90
13970;DHT22;7057;49.984;8.404;2022-10-16T07:28:30;15.90;99.90
13970;DHT22;7057;49.984;8.404;2022-10-16T07:31:00;15.90;99.90
13970;DHT22;7057;49.984;8.404;2022-10-16T07:33:28;16.00;99.90
13970;DHT22;7057;49.984;8.404;2022-10-16T07:35:56;16.00;99.90
13970;DHT22;7057;49.984;8.404;2022-10-16T07:38:24;16.10;99.90
13970;DHT22;7057;49.984;8.404;2022-10-16T07:40:56;16.10;99.90
13970;DHT22;7057;49.984;8.404;2022-10-16T07:43:23;16.20;99.90
13970;DHT22;7057;49.984;8.404;2022-10-16T07:45:50;16.20;99.90
13970;DHT22;7057;49.984;8.404;2022-10-16T07:48:18;16.20;99.90
13970;DHT22;7057;49.984;8.404;2022-10-16T07:50:45;16.20;99.90
13970;DHT22;7057;49.984;8.404;2022-10-16T07:53:14;16.20;99.90
13970;DHT22;7057;49.984;8.404;2022-10-16T07:55:42;16.20;99.90
13970;DHT22;7057;49.984;8.404;2022-10-16T07:58:09;16.20;99.90
13970;DHT22;7057;49.984;8.404;2022-10-16T08:00:37;16.20;99.90
13970;DHT22;7057;49.984;8.404;2022-10-16T08:03:04;16.20;99.90
13970;DHT22;7057;49.984;8.404;2022-10-16T08:05:32;16.30;99.90
13970;DHT22;7057;49.984;8.404;2022-10-16T08:07:59;16.30;99.90
13970;DHT22;7057;49.984;8.404;2022-10-16T08:10:28;16.30;99.90
13970;DHT22;7057;49.984;8.404;2022-10-16T08:12:57;16.40;99.90
13970;DHT22;7057;49.984;8.404;2022-10-16T08:15:25;16.40;99.90
13970;DHT22;7057;49.984;8.404;2022-10-16T08:17:56;16.50;99.90
13970;DHT22;7057;49.984;8.404;2022-10-16T08:20:25;16.50;99.90
13970;DHT22;7057;49.984;8.404;2022-10-16T08:22:52;16.50;99.90
13970;DHT22;7057;49.984;8.404;2022-10-16T08:25:21;16.40;99.90
13970;DHT22;7057;49.984;8.404;2022-10-16T08:27:50;16.50;99.90
13970;DHT22;7057;49.984;8.404;2022-10-16T08:30:19;16.40;99.90
13970;DHT22;7057;49.984;8.404;2022-10-16T08:32:46;16.50;99.90
13970;DHT22;7057;49.984;8.404;2022-10-16T08:35:14;16.60;99.90
13970;DHT22;7057;49.984;8.404;2022-10-16T08:37:42;16.70;99.90
13970;DHT22;7057;49.984;8.404;2022-10-16T08:40:17;16.70;99.90
13970;DHT22;7057;49.984;8.404;2022-10-16T08:43:00;16.80;99.90
13970;DHT22;7057;49.984;8.404;2022-10-16T08:45:36;16.80;99.90
13970;DHT22;7057;49.984;8.404;2022-10-16T08:48:19;16.80;99.90
13970;DHT22;7057;49.984;8.404;2022-10-16T08:50:48;16.70;99.90
13970;DHT22;7057;49.984;8.404;2022-10-16T08:53:20;16.70;99.90
13970;DHT22;7057;49.984;8.404;2022-10-16T08:55:51;16.80;99.90
13970;DHT22;7057;49.984;8.404;2022-10-16T08:58:21;16.90;99.90
13970;DHT22;7057;49.984;8.404;2022-10-16T09:00:53;17.00;99.90
13970;DHT22;7057;49.984;8.404;2022-10-16T09:03:37;17.10;99.90
13970;DHT22;7057;49.984;8.404;2022-10-16T09:06:17;17.20;99.90
13970;DHT22;7057;49.984;8.404;2022-10-16T09:08:52;17.30;99.90
13970;DHT22;7057;49.984;8.404;2022-10-16T09:11:26;17.30;99.90
13970;DHT22;7057;49.984;8.404;2022-10-16T09:14:03;17.00;99.90
13970;DHT22;7057;49.984;8.404;2022-10-16T09:16:38;17.20;99.90
13970;DHT22;7057;49.984;8.404;2022-10-16T09:19:13;17.00;99.90
13970;DHT22;7057;49.984;8.404;2022-10-16T09:21:44;17.00;99.90
13970;DHT22;7057;49.984;8.404;2022-10-16T09:24:15;16.90;99.90
13970;DHT22;7057;49.984;8.404;2022-10-16T09:26:42;16.90;99.90
13970;DHT22;7057;49.984;8.404;2022-10-16T09:29:13;16.90;99.90
13970;DHT22;7057;49.984;8.404;2022-10-16T09:31:41;16.90;99.90
13970;DHT22;7057;49.984;8.404;2022-10-16T09:34:20;17.00;99.90
13970;DHT22;7057;49.984;8.404;2022-10-16T09:36:50;17.00;99.90
13970;DHT22;7057;49.984;8.404;2022-10-16T09:39:18;17.00;99.90
13970;DHT22;7057;49.984;8.404;2022-10-16T09:41:45;17.10;99.90
13970;DHT22;7057;49.984;8.404;2022-10-16T09:44:19;17.20;99.90
13970;DHT22;7057;49.984;8.404;2022-10-16T09:46:48;17.20;99.90
13970;DHT22;7057;49.984;8.404;2022-10-16T09:49:23;17.20;99.90
13970;DHT22;7057;49.984;8.404;2022-10-16T09:51:51;17.20;99.90
13970;DHT22;7057;49.984;8.404;2022-10-16T09:54:20;17.20;99.90
13970;DHT22;7057;49.984;8.404;2022-10-16T09:56:48;17.20;99.90
13970;DHT22;7057;49.984;8.404;2022-10-16T09:59:20;17.20;99.90
13970;DHT22;7057;49.984;8.404;2022-10-16T10:01:51;17.20;99.90
13970;DHT22;7057;49.984;8.404;2022-10-16T10:04:20;17.10;99.90
13970;DHT22;7057;49.984;8.404;2022-10-16T10:06:49;17.20;99.90
13970;DHT22;7057;49.984;8.404;2022-10-16T10:09:21;17.30;99.90
13970;DHT22;7057;49.984;8.404;2022-10-16T10:11:52;17.50;99.90
13970;DHT22;7057;49.984;8.404;2022-10-16T10:14:27;17.60;99.90
13970;DHT22;7057;49.984;8.404;2022-10-16T10:17:14;17.70;99.90
13970;DHT22;7057;49.984;8.404;2022-10-16T10:19:47;17.70;99.90
13970;DHT22;7057;49.984;8.404;2022-10-16T10:22:27;17.80;99.90
13970;DHT22;7057;49.984;8.404;2022-10-16T10:24:57;17.60;99.90
13970;DHT22;7057;49.984;8.404;2022-10-16T10:27:32;17.90;99.90
13970;DHT22;7057;49.984;8.404;2022-10-16T10:30:06;18.10;99.90
13970;DHT22;7057;49.984;8.404;2022-10-16T10:32:46;18.10;99.90
13970;DHT22;7057;49.984;8.404;2022-10-16T10:35:21;18.30;99.90
13970;DHT22;7057;49.984;8.404;2022-10-16T10:38:00;18.60;99.90
13970;DHT22;7057;49.984;8.404;2022-10-16T10:40:45;18.90;99.90
13970;DHT22;7057;49.984;8.404;2022-10-16T10:43:30;19.30;99.90
13970;DHT22;7057;49.984;8.404;2022-10-16T10:46:04;19.20;99.90
13970;DHT22;7057;49.984;8.404;2022-10-16T10:48:46;19.10;99.90
13970;DHT22;7057;49.984;8.404;2022-10-16T10:51:22;18.70;99.90
13970;DHT22;7057;49.984;8.404;2022-10-16T10:53:57;18.70;99.90
13970;DHT22;7057;49.984;8.404;2022-10-16T10:56:42;18.80;99.90
13970;DHT22;7057;49.984;8.404;2022-10-16T10:59:39;18.70;99.90
13970;DHT22;7057;49.984;8.404;2022-10-16T11:02:19;18.70;99.90
13970;DHT22;7057;49.984;8.404;2022-10-16T11:04:58;18.80;99.90
13970;DHT22;7057;49.984;8.404;2022-10-16T11:07:31;18.90;99.90
13970;DHT22;7057;49.984;8.404;2022-10-16T11:10:02;19.10;99.90
13970;DHT22;7057;49.984;8.404;2022-10-16T11:12:33;19.10;99.90
13970;DHT22;7057;49.984;8.404;2022-10-16T11:15:04;19.30;99.90
13970;DHT22;7057;49.984;8.404;2022-10-16T11:17:39;19.30;99.90
13970;DHT22;7057;49.984;8.404;2022-10-16T11:20:14;19.30;99.90
13970;DHT22;7057;49.984;8.404;2022-10-16T11:22:47;19.40;99.90
13970;DHT22;7057;49.984;8.404;2022-10-16T11:25:19;19.50;99.90
13970;DHT22;7057;49.984;8.404;2022-10-16T11:27:51;19.50;99.90
13970;DHT22;7057;49.984;8.404;2022-10-16T11:30:23;19.50;99.90
13970;DHT22;7057;49.984;8.404;2022-10-16T11:33:12;19.60;99.90
13970;DHT22;7057;49.984;8.404;2022-10-16T11:35:51;19.50;99.90
13970;DHT22;7057;49.984;8.404;2022-10-16T11:38:27;19.50;99.90
13970;DHT22;7057;49.984;8.404;2022-10-16T11:41:00;19.60;99.90
13970;DHT22;7057;49.984;8.404;2022-10-16T11:43:34;19.80;99.90
13970;DHT22;7057;49.984;8.404;2022-10-16T11:46:07;19.70;99.90
13970;DHT22;7057;49.984;8.404;2022-10-16T11:48:41;19.60;99.90
13970;DHT22;7057;49.984;8.404;2022-10-16T11:51:16;19.70;99.90
13970;DHT22;7057;49.984;8.404;2022-10-16T11:53:51;19.90;99.90
13970;DHT22;7057;49.984;8.404;2022-10-16T11:56:21;20.00;99.90
13970;DHT22;7057;49.984;8.404;2022-10-16T11:58:55;20.10;99.90
13970;DHT22;7057;49.984;8.404;2022-10-16T12:01:29;20.20;99.90
13970;DHT22;7057;49.984;8.404;2022-10-16T12:04:10;20.50;99.90
13970;DHT22;7057;49.984;8.404;2022-10-16T12:06:44;20.80;99.90
13970;DHT22;7057;49.984;8.404;2022-10-16T12:09:16;20.80;99.90
13970;DHT22;7057;49.984;8.404;2022-10-16T12:11:46;20.60;99.90
13970;DHT22;7057;49.984;8.404;2022-10-16T12:14:33;20.70;99.90
13970;DHT22;7057;49.984;8.404;2022-10-16T12:17:03;20.70;99.90
13970;DHT22;7057;49.984;8.404;2022-10-16T12:19:33;20.70;99.90
13970;DHT22;7057;49.984;8.404;2022-10-16T12:22:02;20.80;99.90
13970;DHT22;7057;49.984;8.404;2022-10-16T12:24:35;20.90;99.90
13970;DHT22;7057;49.984;8.404;2022-10-16T12:27:04;21.00;99.90
13970;DHT22;7057;49.984;8.404;2022-10-16T12:29:35;20.90;99.90
13970;DHT22;7057;49.984;8.404;2022-10-16T12:32:05;20.90;99.90
13970;DHT22;7057;49.984;8.404;2022-10-16T12:34:38;21.10;99.90
13970;DHT22;7057;49.984;8.404;2022-10-16T12:37:13;21.40;99.90
13970;DHT22;7057;49.984;8.404;2022-10-16T12:39:41;21.40;99.90
13970;DHT22;7057;49.984;8.404;2022-10-16T12:42:21;21.10;99.90
13970;DHT22;7057;49.984;8.404;2022-10-16T12:44:49;21.10;99.90
13970;DHT22;7057;49.984;8.404;2022-10-16T12:47:21;21.10;99.90
13970;DHT22;7057;49.984;8.404;2022-10-16T12:49:52;21.10;99.90
13970;DHT22;7057;49.984;8.404;2022-10-16T12:52:36;21.20;99.90
13970;DHT22;7057;49.984;8.404;2022-10-16T12:55:05;21.30;99.90
13970;DHT22;7057;49.984;8.404;2022-10-16T12:57:45;21.50;99.90
13970;DHT22;7057;49.984;8.404;2022-10-16T13:00:25;21.50;99.90
13970;DHT22;7057;49.984;8.404;2022-10-16T13:06:08;21.00;99.90
13970;DHT22;7057;49.984;8.404;2022-10-16T13:08:54;21.00;99.90
13970;DHT22;7057;49.984;8.404;2022-10-16T13:11:33;21.00;99.90
13970;DHT22;7057;49.984;8.404;2022-10-16T13:14:15;21.20;99.90
13970;DHT22;7057;49.984;8.404;2022-10-16T13:16:54;21.30;99.90
13970;DHT22;7057;49.984;8.404;2022-10-16T13:19:30;21.40;99.90
13970;DHT22;7057;49.984;8.404;2022-10-16T13:22:04;21.60;99.90
13970;DHT22;7057;49.984;8.404;2022-10-16T13:24:46;21.30;99.90
13970;DHT22;7057;49.984;8.404;2022-10-16T13:27:23;21.40;99.90
13970;DHT22;7057;49.984;8.404;2022-10-16T13:29:54;21.40;99.90
13970;DHT22;7057;49.984;8.404;2022-10-16T13:32:27;21.20;99.90
13970;DHT22;7057;49.984;8.404;2022-10-16T13:34:54;21.20;99.90
13970;DHT22;7057;49.984;8.404;2022-10-16T13:37:24;21.60;99.90
13970;DHT22;7057;49.984;8.404;2022-10-16T13:40:04;21.40;99.90
13970;DHT22;7057;49.984;8.404;2022-10-16T13:42:34;21.20;99.90
13970;DHT22;7057;49.984;8.404;2022-10-16T13:45:01;21.10;99.90
13970;DHT22;7057;49.984;8.404;2022-10-16T13:47:29;21.00;99.90
13970;DHT22;7057;49.984;8.404;2022-10-16T13:50:00;21.20;99.90
13970;DHT22;7057;49.984;8.404;2022-10-16T13:52:29;21.30;99.90
13970;DHT22;7057;49.984;8.404;2022-10-16T13:54:56;21.30;99.90
13970;DHT22;7057;49.984;8.404;2022-10-16T13:57:24;21.30;99.90
13970;DHT22;7057;49.984;8.404;2022-10-16T13:59:53;21.20;99.90
13970;DHT22;7057;49.984;8.404;2022-10-16T14:02:24;21.20;99.90
13970;DHT22;7057;49.984;8.404;2022-10-16T14:04:52;21.20;99.90
13970;DHT22;7057;49.984;8.404;2022-10-16T14:07:24;21.20;99.90
13970;DHT22;7057;49.984;8.404;2022-10-16T14:09:54;21.00;99.90
13970;DHT22;7057;49.984;8.404;2022-10-16T14:12:22;20.90;99.90
13970;DHT22;7057;49.984;8.404;2022-10-16T14:14:51;20.90;99.90
13970;DHT22;7057;49.984;8.404;2022-10-16T14:17:23;20.90;99.90
13970;DHT22;7057;49.984;8.404;2022-10-16T14:19:53;20.90;99.90
13970;DHT22;7057;49.984;8.404;2022-10-16T14:22:29;20.90;99.90
13970;DHT22;7057;49.984;8.404;2022-10-16T14:24:58;20.90;99.90
13970;DHT22;7057;49.984;8.404;2022-10-16T14:27:29;20.90;99.90
13970;DHT22;7057;49.984;8.404;2022-10-16T14:30:12;21.00;99.90
13970;DHT22;7057;49.984;8.404;2022-10-16T14:32:41;21.00;99.90
13970;DHT22;7057;49.984;8.404;2022-10-16T14:35:26;21.10;99.90
13970;DHT22;7057;49.984;8.404;2022-10-16T14:37:54;21.20;99.90
13970;DHT22;7057;49.984;8.404;2022-10-16T14:40:25;21.20;99.90
13970;DHT22;7057;49.984;8.404;2022-10-16T14:42:53;21.10;99.90
13970;DHT22;7057;49.984;8.404;2022-10-16T14:45:23;21.10;99.90
13970;DHT22;7057;49.984;8.404;2022-10-16T14:47:54;20.90;99.90
13970;DHT22;7057;49.984;8.404;2022-10-16T14:50:21;20.90;99.90
13970;DHT22;7057;49.984;8.404;2022-10-16T14:52:49;20.80;99.90
13970;DHT22;7057;49.984;8.404;2022-10-16T14:55:16;20.70;99.90
13970;DHT22;7057;49.984;8.404;2022-10-16T14:57:45;20.80;99.90
13970;DHT22;7057;49.984;8.404;2022-10-16T15:00:19;20.90;99.90
13970;DHT22;7057;49.984;8.404;2022-10-16T15:02:47;20.90;99.90
13970;DHT22;7057;49.984;8.404;2022-10-16T15:05:17;21.00;99.90
13970;DHT22;7057;49.984;8.404;2022-10-16T15:07:45;21.00;99.90
13970;DHT22;7057;49.984;8.404;2022-10-16T15:10:13;20.90;99.90
13970;DHT22;7057;49.984;8.404;2022-10-16T15:12:41;20.90;99.90
13970;DHT22;7057;49.984;8.404;2022-10-16T15:15:26;20.80;99.90
13970;DHT22;7057;49.984;8.404;2022-10-16T15:17:57;20.70;99.90
13970;DHT22;7057;49.984;8.404;2022-10-16T15:20:27;20.50;99.90
13970;DHT22;7057;49.984;8.404;2022-10-16T15:22:54;20.40;99.90
13970;DHT22;7057;49.984;8.404;2022-10-16T15:25:31;20.40;99.90
13970;DHT22;7057;49.984;8.404;2022-10-16T15:27:59;20.40;99.90
13970;DHT22;7057;49.984;8.404;2022-10-16T15:30:28;20.40;99.90
13970;DHT22;7057;49.984;8.404;2022-10-16T15:32:55;20.40;99.90
13970;DHT22;7057;49.984;8.404;2022-10-16T15:35:23;20.40;99.90
13970;DHT22;7057;49.984;8.404;2022-10-16T15:37:50;20.40;99.90
13970;DHT22;7057;49.984;8.404;2022-10-16T15:40:18;20.40;99.90
13970;DHT22;7057;49.984;8.404;2022-10-16T15:42:46;20.40;99.90
13970;DHT22;7057;49.984;8.404;2022-10-16T15:45:14;20.40;99.90
13970;DHT22;7057;49.984;8.404;2022-10-16T15:47:42;20.30;99.90
13970;DHT22;7057;49.984;8.404;2022-10-16T15:50:10;20.20;99.90
13970;DHT22;7057;49.984;8.404;2022-10-16T15:52:39;20.10;99.90
13970;DHT22;7057;49.984;8.404;2022-10-16T15:55:07;20.10;99.90
13970;DHT22;7057;49.984;8.404;2022-10-16T15:57:34;20.10;99.90
13970;DHT22;7057;49.984;8.404;2022-10-16T16:00:06;20.10;99.90
13970;DHT22;7057;49.984;8.404;2022-10-16T16:02:34;20.10;99.90
13970;DHT22;7057;49.984;8.404;2022-10-16T16:05:03;20.00;99.90
13970;DHT22;7057;49.984;8.404;2022-10-16T16:07:33;20.00;99.90
13970;DHT22;7057;49.984;8.404;2022-10-16T16:10:01;20.00;99.90